createdAt,value
2023-04-18T00:00:13.905Z,5.75
2023-04-18T00:03:17.336Z,6.22
2023-04-18T00:06:19.199Z,5.20
2023-04-18T00:09:20.875Z,4.80
2023-04-18T00:12:22.828Z,7.28
2023-04-18T00:15:24.580Z,5.43
2023-04-18T00:18:27.616Z,5.90
2023-04-18T00:21:29.292Z,4.72
2023-04-18T00:24:30.967Z,5.10
2023-04-18T00:27:32.584Z,5.25
2023-04-18T00:30:34.519Z,5.80
2023-04-18T00:33:37.957Z,3.92
2023-04-18T00:36:39.821Z,5.22
2023-04-18T00:39:41.661Z,5.22
2023-04-18T00:42:43.288Z,5.25
2023-04-18T00:45:44.980Z,5.22
2023-04-18T00:48:49.016Z,4.63
2023-04-18T00:51:51.104Z,4.53
2023-04-18T00:54:54.054Z,5.03
2023-04-18T00:57:55.796Z,3.55
2023-04-18T01:04:18.301Z,4.00
2023-04-18T01:07:20.226Z,3.83
2023-04-18T01:10:22.054Z,4.30
2023-04-18T01:13:23.676Z,3.78
2023-04-18T01:16:25.757Z,3.63
2023-04-18T01:19:28.865Z,5.20
2023-04-18T01:22:31.919Z,4.38
2023-04-18T01:25:34.910Z,4.88
2023-04-18T01:28:37.167Z,4.47
2023-04-18T01:31:40.302Z,4.35
2023-04-18T01:34:41.975Z,6.50
2023-04-18T01:37:43.732Z,5.38
2023-04-18T01:40:46.788Z,5.22
2023-04-18T01:43:48.480Z,4.90
2023-04-18T01:46:50.218Z,5.43
2023-04-18T01:49:52.069Z,6.03
2023-04-18T01:52:53.983Z,4.53
2023-04-18T01:55:57.049Z,5.25
2023-04-18T01:58:58.746Z,5.50
2023-04-18T02:02:00.459Z,4.00
2023-04-18T02:05:02.262Z,4.63
2023-04-18T02:08:04.324Z,4.72
2023-04-18T02:11:07.350Z,4.43
2023-04-18T02:14:09.059Z,5.43
2023-04-18T02:17:10.727Z,4.72
2023-04-18T02:20:12.476Z,5.70
2023-04-18T02:23:14.374Z,4.70
2023-04-18T02:26:17.350Z,5.90
2023-04-18T02:29:19.207Z,4.85
2023-04-18T02:32:20.889Z,4.32
2023-04-18T02:35:23.546Z,3.67
2023-04-18T02:38:25.411Z,6.25
2023-04-18T02:41:28.410Z,5.25
2023-04-18T02:44:30.074Z,4.70
2023-04-18T02:47:37.493Z,5.30
2023-04-18T02:50:45.842Z,5.43
2023-04-18T02:53:47.766Z,6.15
2023-04-18T02:56:51.845Z,5.47
2023-04-18T02:59:53.719Z,6.57
2023-04-18T03:02:55.516Z,6.85
2023-04-18T03:05:57.247Z,6.82
2023-04-18T03:08:59.024Z,6.93
2023-04-18T03:12:02.150Z,5.60
2023-04-18T03:15:04.370Z,4.90
2023-04-18T03:18:06.181Z,6.93
2023-04-18T03:21:07.862Z,5.75
2023-04-18T03:24:11.981Z,5.38
2023-04-18T03:27:15.281Z,5.57
2023-04-18T03:30:17.738Z,4.75
2023-04-18T03:33:19.415Z,4.47
2023-04-18T03:36:21.112Z,6.72
2023-04-18T03:39:22.726Z,5.63
2023-04-18T03:42:25.663Z,11.13
2023-04-18T03:45:27.402Z,4.95
2023-04-18T03:48:29.177Z,5.10
2023-04-18T03:51:33.343Z,4.28
2023-04-18T03:54:34.969Z,4.88
2023-04-18T03:57:37.959Z,4.82
2023-04-18T04:00:39.581Z,8.23
2023-04-18T04:03:41.453Z,5.90
2023-04-18T04:06:43.604Z,4.78
2023-04-18T04:09:45.423Z,6.93
2023-04-18T04:12:48.487Z,4.93
2023-04-18T04:15:50.731Z,4.90
2023-04-18T04:18:52.353Z,4.40
2023-04-18T04:21:54.150Z,4.32
2023-04-18T04:24:56.481Z,6.22
2023-04-18T04:27:59.607Z,4.32
2023-04-18T04:31:01.525Z,4.68
2023-04-18T04:34:03.465Z,5.32
2023-04-18T04:37:05.122Z,4.07
2023-04-18T04:40:07.734Z,5.15
2023-04-18T04:43:10.717Z,6.88
2023-04-18T04:46:12.498Z,4.93
2023-04-18T04:49:14.273Z,6.38
2023-04-18T04:52:16.472Z,4.43
2023-04-18T04:55:18.338Z,5.55
2023-04-18T04:58:21.420Z,8.48
2023-04-18T05:01:23.160Z,7.30
2023-04-18T05:04:24.918Z,7.47
2023-04-18T05:07:26.740Z,8.75
2023-04-18T05:10:28.402Z,9.25
2023-04-18T05:13:31.718Z,7.88
2023-04-18T05:16:33.547Z,5.15
2023-04-18T05:19:35.431Z,6.15
2023-04-18T05:22:37.347Z,3.67
2023-04-18T05:25:39.145Z,4.07
2023-04-18T05:28:42.547Z,4.50
2023-04-18T05:31:45.130Z,3.22
2023-04-18T05:34:47.072Z,3.58
2023-04-18T05:37:48.768Z,4.88
2023-04-18T05:40:50.390Z,5.55
2023-04-18T05:44:04.261Z,2.90
2023-04-18T05:47:07.338Z,2.97
2023-04-18T05:50:09.674Z,2.83
2023-04-18T05:53:11.383Z,4.82
2023-04-18T05:56:13.190Z,3.78
2023-04-18T05:59:16.850Z,4.28
2023-04-18T06:05:20.863Z,3.55
2023-04-18T06:08:22.588Z,2.20
2023-04-18T06:11:24.446Z,3.40
2023-04-18T06:14:27.570Z,3.35
2023-04-18T06:17:29.453Z,4.32
2023-04-18T06:20:31.219Z,3.28
2023-04-18T06:23:32.985Z,4.57
2023-04-18T06:26:34.997Z,2.80
2023-04-18T06:29:38.264Z,2.20
2023-04-18T06:32:39.952Z,6.28
2023-04-18T06:35:41.706Z,3.83
2023-04-18T06:38:43.456Z,2.50
2023-04-18T06:41:45.431Z,2.92
2023-04-18T06:44:48.409Z,3.17
2023-04-18T06:47:50.429Z,2.92
2023-04-18T06:50:52.429Z,4.10
2023-04-18T06:53:54.682Z,4.82
2023-04-18T06:56:56.404Z,3.45
2023-04-18T06:59:59.390Z,5.70
2023-04-18T07:03:01.259Z,3.55
2023-04-18T07:06:03.120Z,3.60
2023-04-18T07:09:04.867Z,3.92
2023-04-18T07:12:06.812Z,1.80
2023-04-18T07:15:10.733Z,2.22
2023-04-18T07:18:14.547Z,3.78
2023-04-18T07:21:19.764Z,2.53
2023-04-18T07:24:21.384Z,3.13
2023-04-18T07:27:23.037Z,2.33
2023-04-18T07:30:25.989Z,3.78
2023-04-18T07:33:27.647Z,2.95
2023-04-18T07:36:29.803Z,2.78
2023-04-18T07:39:31.591Z,2.95
2023-04-18T07:42:33.268Z,1.90
2023-04-18T07:45:36.373Z,2.25
2023-04-18T07:48:38.281Z,3.33
2023-04-18T07:51:39.920Z,3.03
2023-04-18T07:54:41.606Z,2.65
2023-04-18T07:57:43.896Z,2.55
2023-04-18T08:00:48.098Z,1.58
2023-04-18T08:03:50.217Z,6.32
2023-04-18T08:06:52.585Z,10.20
2023-04-18T08:09:54.263Z,3.00
2023-04-18T08:12:55.961Z,3.83
2023-04-18T08:15:59.613Z,4.68
2023-04-18T08:19:01.312Z,2.55
2023-04-18T08:22:08.480Z,2.97
2023-04-18T08:25:10.168Z,2.47
2023-04-18T08:28:12.498Z,2.97
2023-04-18T08:31:15.593Z,3.20
2023-04-18T08:34:17.330Z,3.63
2023-04-18T08:37:18.967Z,3.17
2023-04-18T08:40:20.880Z,2.13
2023-04-18T08:43:22.621Z,3.65
2023-04-18T08:46:26.345Z,3.67
2023-04-18T08:49:28.134Z,3.80
2023-04-18T08:52:31.996Z,3.50
2023-04-18T08:55:33.827Z,2.00
2023-04-18T08:58:35.475Z,3.60
2023-04-18T09:01:55.927Z,3.10
2023-04-18T09:04:57.587Z,4.07
2023-04-18T09:07:59.318Z,3.28
2023-04-18T09:11:25.375Z,2.50
2023-04-18T09:14:27.071Z,3.28
2023-04-18T09:17:35.184Z,1.67
2023-04-18T09:20:38.576Z,2.35
2023-04-18T09:26:41.945Z,2.63
2023-04-18T09:29:45.253Z,4.35
2023-04-18T09:32:57.895Z,3.70
2023-04-18T09:36:17.674Z,4.38
2023-04-18T09:39:27.199Z,3.38
2023-04-18T09:42:36.077Z,3.05
2023-04-18T09:45:38.545Z,4.35
2023-04-18T09:48:41.733Z,2.25
2023-04-18T09:51:44.187Z,3.13
2023-04-18T09:54:48.340Z,4.22
2023-04-18T09:57:53.111Z,4.72
2023-04-18T10:00:56.280Z,2.78
2023-04-18T10:04:02.068Z,3.22
2023-04-18T10:07:04.447Z,4.13
2023-04-18T10:10:07.367Z,2.08
2023-04-18T10:13:11.455Z,5.22
2023-04-18T10:16:13.812Z,3.55
2023-04-18T10:19:24.717Z,3.78
2023-04-18T10:22:27.580Z,2.55
2023-04-18T10:25:48.229Z,4.55
2023-04-18T10:28:51.699Z,2.20
2023-04-18T10:31:53.468Z,3.55
2023-04-18T10:34:56.668Z,2.35
2023-04-18T10:37:59.950Z,3.55
2023-04-18T10:41:23.985Z,3.38
2023-04-18T10:44:25.671Z,4.20
2023-04-18T10:47:27.665Z,3.47
2023-04-18T10:50:31.082Z,3.95
2023-04-18T10:53:33.146Z,2.20
2023-04-18T10:56:35.072Z,3.88
2023-04-18T10:59:38.906Z,4.53
2023-04-18T11:02:47.658Z,4.85
2023-04-18T11:05:50.989Z,3.97
2023-04-18T11:09:09.374Z,3.08
2023-04-18T11:12:11.534Z,3.08
2023-04-18T11:15:14.624Z,3.60
2023-04-18T11:18:16.404Z,2.78
2023-04-18T11:21:19.765Z,3.75
2023-04-18T11:27:25.182Z,2.35
2023-04-18T11:30:27.756Z,2.95
2023-04-18T11:33:29.582Z,3.70
2023-04-18T11:36:34.296Z,2.13
2023-04-18T11:39:41.273Z,4.07
2023-04-18T11:42:43.160Z,3.92
2023-04-18T11:45:51.486Z,3.17
2023-04-18T11:48:53.371Z,5.82
2023-04-18T11:51:56.737Z,3.55
2023-04-18T11:58:11.504Z,5.82
2023-04-18T12:01:17.986Z,3.80
2023-04-18T12:04:20.113Z,6.13
2023-04-18T12:07:37.314Z,4.40
2023-04-18T12:10:46.879Z,3.15
2023-04-18T12:13:48.546Z,4.43
2023-04-18T12:16:50.350Z,2.42
2023-04-18T12:19:52.076Z,3.90
2023-04-18T12:22:55.175Z,3.08
2023-04-18T12:26:00.915Z,2.13
2023-04-18T12:29:02.589Z,3.30
2023-04-18T12:32:04.698Z,7.10
2023-04-18T12:35:07.601Z,4.63
2023-04-18T12:38:10.715Z,3.90
2023-04-18T12:41:13.802Z,3.08
2023-04-18T12:44:15.709Z,4.13
2023-04-18T12:47:17.583Z,3.25
2023-04-18T12:50:20.890Z,4.97
2023-04-18T12:53:23.967Z,3.53
2023-04-18T12:56:25.817Z,4.35
2023-04-18T12:59:27.466Z,5.00
2023-04-18T13:02:29.282Z,5.10
2023-04-18T13:05:33.490Z,3.15
2023-04-18T13:08:37.355Z,4.05
2023-04-18T13:11:39.032Z,6.43
2023-04-18T13:14:41.830Z,2.13
2023-04-18T13:17:43.943Z,2.75
2023-04-18T13:20:45.730Z,5.32
2023-04-18T13:23:49.027Z,3.20
2023-04-18T13:29:52.501Z,3.13
2023-04-18T13:32:54.231Z,2.72
2023-04-18T13:35:56.072Z,6.35
2023-04-18T13:38:59.107Z,4.03
2023-04-18T13:42:01.388Z,3.05
2023-04-18T13:45:03.352Z,3.33
2023-04-18T13:48:06.447Z,3.13
2023-04-18T13:51:08.186Z,5.18
2023-04-18T13:54:11.281Z,3.35
2023-04-18T13:57:12.950Z,3.03
2023-04-18T14:00:15.464Z,3.72
2023-04-18T14:03:17.316Z,5.50
2023-04-18T14:06:19.059Z,3.65
2023-04-18T14:09:22.180Z,4.68
2023-04-18T14:12:23.893Z,2.85
2023-04-18T14:15:25.974Z,5.43
2023-04-18T14:18:27.679Z,6.38
2023-04-18T14:21:29.745Z,4.35
2023-04-18T14:24:32.867Z,3.90
2023-04-18T14:27:34.509Z,3.47
2023-04-18T14:30:36.813Z,3.10
2023-04-18T14:33:38.777Z,3.38
2023-04-18T14:36:40.468Z,3.63
2023-04-18T14:39:43.566Z,4.57
2023-04-18T14:42:45.286Z,4.25
2023-04-18T14:45:47.251Z,3.10
2023-04-18T14:48:49.320Z,4.10
2023-04-18T14:51:51.466Z,4.00
2023-04-18T14:54:54.826Z,3.38
2023-04-18T15:00:58.041Z,7.78
2023-04-18T15:03:59.804Z,3.65
2023-04-18T15:07:01.868Z,3.78
2023-04-18T15:10:06.096Z,3.80
2023-04-18T15:13:07.925Z,3.90
2023-04-18T15:16:09.616Z,3.50
2023-04-18T15:19:11.334Z,4.72
2023-04-18T15:22:13.379Z,5.18
2023-04-18T15:25:16.570Z,3.05
2023-04-18T15:28:19.271Z,3.22
2023-04-18T15:31:21.094Z,3.53
2023-04-18T15:34:22.989Z,5.30
2023-04-18T15:37:24.716Z,8.15
2023-04-18T15:40:28.169Z,4.72
2023-04-18T15:43:29.891Z,3.90
2023-04-18T15:46:31.871Z,4.60
2023-04-18T15:49:33.651Z,6.53
2023-04-18T15:52:35.631Z,3.75
2023-04-18T15:55:39.062Z,5.75
2023-04-18T15:58:40.999Z,4.97
2023-04-18T16:01:45.194Z,5.15
2023-04-18T16:04:47.855Z,6.00
2023-04-18T16:07:49.693Z,7.45
2023-04-18T16:10:53.260Z,5.80
2023-04-18T16:13:55.205Z,5.75
2023-04-18T16:16:59.203Z,3.28
2023-04-18T16:20:00.877Z,5.20
2023-04-18T16:23:02.601Z,5.35
2023-04-18T16:26:06.312Z,4.95
2023-04-18T16:29:08.296Z,5.72
2023-04-18T16:32:10.078Z,4.93
2023-04-18T16:35:12.481Z,7.88
2023-04-18T16:38:14.426Z,5.80
2023-04-18T16:41:17.805Z,5.47
2023-04-18T16:47:21.252Z,10.25
2023-04-18T16:50:23.319Z,5.15
2023-04-18T16:53:26.070Z,5.00
2023-04-18T16:56:29.310Z,3.95
2023-04-18T16:59:31.724Z,4.57
2023-04-18T17:02:33.916Z,3.90
2023-04-18T17:05:35.916Z,4.43
2023-04-18T17:08:37.596Z,5.43
2023-04-18T17:11:41.055Z,4.55
2023-04-18T17:14:44.018Z,16.02
2023-04-18T17:17:45.819Z,12.75
2023-04-18T17:20:47.982Z,9.68
2023-04-18T17:23:50.162Z,8.35
2023-04-18T17:26:53.297Z,6.05
2023-04-18T17:29:55.020Z,3.90
2023-04-18T17:32:57.727Z,4.85
2023-04-18T17:36:00.808Z,5.50
2023-04-18T17:39:03.092Z,5.10
2023-04-18T17:42:07.146Z,7.07
2023-04-18T17:45:10.145Z,4.97
2023-04-18T17:48:12.307Z,5.10
2023-04-18T17:51:15.246Z,12.82
2023-04-18T17:54:17.730Z,7.47
2023-04-18T17:57:24.483Z,8.35
2023-04-18T18:00:26.856Z,10.07
2023-04-18T18:03:31.972Z,11.23
2023-04-18T18:06:34.177Z,10.40
2023-04-18T18:09:37.709Z,8.68
2023-04-18T18:12:42.476Z,10.15
2023-04-18T18:15:45.468Z,12.20
2023-04-18T18:18:50.747Z,15.32
2023-04-18T18:21:59.331Z,20.50
2023-04-18T18:25:03.232Z,14.75
2023-04-18T18:28:12.896Z,7.60
2023-04-18T18:31:17.676Z,9.05
2023-04-18T18:34:20.010Z,4.97
2023-04-18T18:37:41.923Z,5.57
2023-04-18T18:40:53.639Z,5.38
2023-04-18T18:43:57.236Z,4.82
2023-04-18T18:47:28.692Z,4.85
2023-04-18T18:50:42.153Z,5.53
2023-04-18T18:53:59.872Z,6.72
2023-04-18T18:57:04.195Z,5.53
2023-04-18T19:00:09.769Z,5.70
2023-04-18T19:03:13.762Z,7.07
2023-04-18T19:06:24.312Z,6.97
2023-04-18T19:09:44.598Z,4.43
2023-04-18T19:12:52.886Z,5.30
2023-04-18T19:15:59.048Z,5.18
2023-04-18T19:19:02.145Z,5.45
2023-04-18T19:22:04.787Z,7.45
2023-04-18T19:25:28.499Z,9.05
2023-04-18T19:28:34.388Z,4.38
2023-04-18T19:31:40.746Z,3.92
2023-04-18T19:34:43.471Z,6.15
2023-04-18T19:37:45.228Z,4.10
2023-04-18T19:40:47.004Z,3.80
2023-04-18T19:43:49.138Z,2.90
2023-04-18T19:46:54.698Z,3.60
2023-04-18T19:49:57.326Z,6.22
2023-04-18T19:52:59.664Z,3.00
2023-04-18T19:56:18.793Z,2.85
2023-04-18T19:59:30.979Z,4.82
2023-04-18T20:02:35.528Z,4.47
2023-04-18T20:05:37.754Z,5.40
2023-04-18T20:08:42.380Z,3.30
2023-04-18T20:11:55.362Z,5.45
2023-04-18T20:14:58.247Z,3.75
2023-04-18T20:18:02.386Z,3.85
2023-04-18T20:21:08.512Z,3.80
2023-04-18T20:24:12.280Z,3.33
2023-04-18T20:27:14.753Z,4.32
2023-04-18T20:30:16.840Z,3.72
2023-04-18T20:33:20.520Z,5.85
2023-04-18T20:36:23.547Z,4.13
2023-04-18T20:39:38.275Z,7.18
2023-04-18T20:42:41.157Z,3.42
2023-04-18T20:45:43.639Z,5.55
2023-04-18T20:48:47.466Z,3.72
2023-04-18T20:51:49.280Z,3.67
2023-04-18T20:54:51.378Z,4.72
2023-04-18T20:57:53.581Z,4.50
2023-04-18T21:00:55.334Z,4.75
2023-04-18T21:03:58.598Z,4.88
2023-04-18T21:07:00.700Z,5.90
2023-04-18T21:10:02.974Z,3.58
2023-04-18T21:13:04.656Z,5.50
2023-04-18T21:16:07.074Z,4.55
2023-04-18T21:19:10.642Z,3.92
2023-04-18T21:25:14.709Z,3.10
2023-04-18T21:28:18.706Z,5.20
2023-04-18T21:31:20.432Z,4.97
2023-04-18T21:34:23.510Z,5.05
2023-04-18T21:37:25.321Z,5.53
2023-04-18T21:40:27.273Z,4.25
2023-04-18T21:43:29.083Z,6.45
2023-04-18T21:46:31.074Z,4.82
2023-04-18T21:49:34.190Z,5.55
2023-04-18T21:52:35.898Z,3.67
2023-04-18T21:55:37.554Z,5.10
2023-04-18T21:58:39.319Z,5.30
2023-04-18T22:01:41.200Z,4.50
2023-04-18T22:04:44.283Z,4.88
2023-04-18T22:07:54.983Z,4.25
2023-04-18T22:11:00.326Z,6.03
2023-04-18T22:14:01.998Z,3.60
2023-04-18T22:17:03.804Z,4.85
2023-04-18T22:20:08.445Z,4.70
2023-04-18T22:23:10.864Z,5.35
2023-04-18T22:26:13.123Z,3.35
2023-04-18T22:29:15.058Z,3.20
2023-04-18T22:32:16.709Z,4.78
2023-04-18T22:35:20.099Z,4.88
2023-04-18T22:38:22.058Z,4.40
2023-04-18T22:41:23.986Z,4.85
2023-04-18T22:44:25.952Z,4.55
2023-04-18T22:47:27.928Z,5.90
2023-04-18T22:50:30.930Z,5.72
2023-04-18T22:53:32.846Z,4.40
2023-04-18T22:56:34.834Z,5.45
2023-04-18T22:59:36.560Z,3.72
2023-04-18T23:02:38.685Z,5.05
2023-04-18T23:05:41.960Z,3.75
2023-04-18T23:08:43.647Z,5.05
2023-04-18T23:11:45.553Z,5.30
2023-04-18T23:14:48.080Z,5.10
2023-04-18T23:17:51.951Z,4.15
2023-04-18T23:20:55.136Z,4.80
2023-04-18T23:23:56.829Z,4.63
2023-04-18T23:26:58.608Z,3.92
2023-04-18T23:30:00.498Z,4.45
2023-04-18T23:33:02.516Z,6.20
2023-04-18T23:36:06.231Z,5.95
2023-04-18T23:39:08.136Z,6.50
2023-04-18T23:42:12.431Z,3.97
2023-04-18T23:45:14.579Z,5.22
2023-04-18T23:48:16.522Z,8.32
2023-04-18T23:51:19.634Z,4.88
2023-04-18T23:54:21.252Z,5.00
2023-04-18T23:57:22.978Z,4.03
